Time,TemperatureF,DewpointF,PressureIn,WindDirection,WindDirectionDegrees,WindSpeedMPH,WindSpeedGustMPH,Humidity,HourlyPrecipIn,Conditions,Clouds,dailyrainin,SoftwareType,DateUTC
2013-01-05 00:07:00,23.6,20.0,30.25,West,280,0.0,-999.0,87,-99.99,,,0.00,weatherlink.com 1.10,2013-01-05 05:07:00,
2013-01-05 00:22:00,23.4,20.0,30.25,WSW,257,2.0,-999.0,87,-99.99,,,0.00,weatherlink.com 1.10,2013-01-05 05:22:00,
2013-01-05 00:37:00,23.1,20.0,30.26,WNW,287,0.0,-999.0,87,-99.99,,,0.00,weatherlink.com 1.10,2013-01-05 05:37:00,
2013-01-05 00:52:00,23.2,20.0,30.26,WNW,283,1.0,-999.0,88,-99.99,,,0.00,weatherlink.com 1.10,2013-01-05 05:52:00,
2013-01-05 01:07:00,23.2,20.0,30.26,SW,222,1.0,-999.0,88,-99.99,,,0.00,weatherlink.com 1.10,2013-01-05 06:07:00,
2013-01-05 01:22:00,23.2,20.0,30.26,West,278,3.0,-999.0,88,-99.99,,,0.00,weatherlink.com 1.10,2013-01-05 06:22:00,
2013-01-05 01:37:00,23.2,20.0,30.26,WSW,254,0.0,-999.0,88,-99.99,,,0.00,weatherlink.com 1.10,2013-01-05 06:37:00,
2013-01-05 01:52:00,23.2,20.0,30.27,SE,141,3.0,-999.0,88,-99.99,,,0.00,weatherlink.com 1.10,2013-01-05 06:52:00,
2013-01-05 02:07:00,23.1,20.0,30.27,NNW,328,1.0,-999.0,88,-99.99,,,0.00,weatherlink.com 1.10,2013-01-05 07:07:00,
2013-01-05 02:22:00,23.0,20.0,30.28,WSW,243,2.0,-999.0,88,-99.99,,,0.00,weatherlink.com 1.10,2013-01-05 07:22:00,
2013-01-05 02:37:00,23.0,20.0,30.29,SSW,207,0.0,-999.0,88,-99.99,,,0.00,weatherlink.com 1.10,2013-01-05 07:37:00,
2013-01-05 02:52:00,23.1,20.0,30.30,East,97,2.0,-999.0,88,-99.99,,,0.00,weatherlink.com 1.10,2013-01-05 07:52:00,
2013-01-05 03:07:00,23.0,20.0,30.30,WNW,294,3.0,-999.0,88,-99.99,,,0.00,weatherlink.com 1.10,2013-01-05 08:07:00,
2013-01-05 03:22:00,22.7,20.0,30.31,NW,313,0.0,-999.0,88,-99.99,,,0.00,weatherlink.com 1.10,2013-01-05 08:22:00,
2013-01-05 03:37:00,22.2,19.0,30.31,SW,215,0.0,-999.0,88,-99.99,,,0.00,weatherlink.com 1.10,2013-01-05 08:37:00,
2013-01-05 03:52:00,21.6,19.0,30.30,WSW,243,0.0,-999.0,88,-99.99,,,0.00,weatherlink.com 1.10,2013-01-05 08:52:00,
2013-01-05 04:07:00,20.7,18.0,30.30,West,267,0.0,-999.0,89,-99.99,,,0.00,weatherlink.com 1.10,2013-01-05 09:07:00,
2013-01-05 04:22:00,-999.0,-99.9,30.31,North,-999,-999.0,-999.0,-999,-99.99,,,0.00,weatherlink.com 1.10,2013-01-05 09:22:00,
2013-01-05 04:37:00,-999.0,-99.9,30.30,North,-999,-999.0,-999.0,-999,-99.99,,,0.00,weatherlink.com 1.10,2013-01-05 09:37:00,
2013-01-05 04:52:00,-999.0,-99.9,30.31,North,-999,-999.0,-999.0,-999,-99.99,,,0.00,weatherlink.com 1.10,2013-01-05 09:52:00,
2013-01-05 05:07:00,-999.0,-99.9,30.31,North,-999,-999.0,-999.0,-999,-99.99,,,0.00,weatherlink.com 1.10,2013-01-05 10:07:00,
2013-01-05 05:22:00,-999.0,-99.9,30.32,North,-999,-999.0,-999.0,-999,-99.99,,,0.00,weatherlink.com 1.10,2013-01-05 10:22:00,
2013-01-05 05:37:00,-999.0,-99.9,30.32,North,-999,-999.0,-999.0,-999,-99.99,,,0.00,weatherlink.com 1.10,2013-01-05 10:37:00,
2013-01-05 05:52:00,-999.0,-99.9,30.32,North,-999,-999.0,-999.0,-999,-99.99,,,0.00,weatherlink.com 1.10,2013-01-05 10:52:00,
2013-01-05 06:07:00,-999.0,-99.9,30.31,North,-999,-999.0,-999.0,-999,-99.99,,,0.00,weatherlink.com 1.10,2013-01-05 11:07:00,
2013-01-05 06:22:00,-999.0,-99.9,30.32,North,-999,-999.0,-999.0,-999,-99.99,,,0.00,weatherlink.com 1.10,2013-01-05 11:22:00,
2013-01-05 06:37:00,-999.0,-99.9,30.32,North,-999,-999.0,-999.0,-999,-99.99,,,0.00,weatherlink.com 1.10,2013-01-05 11:37:00,
2013-01-05 06:52:00,-999.0,-99.9,30.32,North,-999,-999.0,-999.0,-999,-99.99,,,0.00,weatherlink.com 1.10,2013-01-05 11:52:00,
2013-01-05 07:07:00,-999.0,-99.9,30.33,North,-999,-999.0,-999.0,-999,-99.99,,,0.00,weatherlink.com 1.10,2013-01-05 12:07:00,
2013-01-05 07:22:00,-999.0,-99.9,30.33,North,-999,-999.0,-999.0,-999,-99.99,,,0.00,weatherlink.com 1.10,2013-01-05 12:22:00,
2013-01-05 07:37:00,-999.0,-99.9,30.34,North,-999,-999.0,-999.0,-999,-99.99,,,0.00,weatherlink.com 1.10,2013-01-05 12:37:00,
2013-01-05 07:52:00,-999.0,-99.9,30.33,North,-999,-999.0,-999.0,-999,-99.99,,,0.00,weatherlink.com 1.10,2013-01-05 12:52:00,
2013-01-05 08:07:00,-999.0,-99.9,30.32,North,-999,-999.0,-999.0,-999,-99.99,,,0.00,weatherlink.com 1.10,2013-01-05 13:07:00,
2013-01-05 08:22:00,-999.0,-99.9,30.33,North,-999,-999.0,-999.0,-999,-99.99,,,0.00,weatherlink.com 1.10,2013-01-05 13:22:00,
2013-01-05 08:37:00,20.2,18.0,30.33,SSW,198,2.0,-999.0,92,-99.99,,,0.00,weatherlink.com 1.10,2013-01-05 13:37:00,
2013-01-05 08:52:00,21.2,19.0,30.34,South,170,2.0,-999.0,92,-99.99,,,0.00,weatherlink.com 1.10,2013-01-05 13:52:00,
2013-01-05 09:07:00,22.2,20.0,30.34,SSW,201,3.0,-999.0,91,-99.99,,,0.00,weatherlink.com 1.10,2013-01-05 14:07:00,
2013-01-05 09:22:00,23.1,21.0,30.34,South,174,3.0,-999.0,90,-99.99,,,0.00,weatherlink.com 1.10,2013-01-05 14:22:00,
2013-01-05 09:37:00,24.1,21.0,30.34,SSW,212,3.0,-999.0,88,-99.99,,,0.00,weatherlink.com 1.10,2013-01-05 14:37:00,
2013-01-05 09:52:00,25.6,22.0,30.34,South,177,0.0,-999.0,87,-99.99,,,0.00,weatherlink.com 1.10,2013-01-05 14:52:00,
2013-01-05 10:07:00,26.8,23.0,30.34,SW,224,2.0,-999.0,85,-99.99,,,0.00,weatherlink.com 1.10,2013-01-05 15:07:00,
2013-01-05 10:22:00,27.4,23.0,30.34,SSW,210,3.0,-999.0,83,-99.99,,,0.00,weatherlink.com 1.10,2013-01-05 15:22:00,
2013-01-05 10:37:00,28.0,24.0,30.34,SSW,195,7.0,-999.0,83,-99.99,,,0.00,weatherlink.com 1.10,2013-01-05 15:37:00,
2013-01-05 10:52:00,28.3,23.0,30.34,South,173,2.0,-999.0,81,-99.99,,,0.00,weatherlink.com 1.10,2013-01-05 15:52:00,
2013-01-05 11:07:00,29.4,24.0,30.33,SW,225,0.0,-999.0,81,-99.99,,,0.00,weatherlink.com 1.10,2013-01-05 16:07:00,
2013-01-05 11:22:00,30.4,24.0,30.32,South,188,2.0,-999.0,77,-99.99,,,0.00,weatherlink.com 1.10,2013-01-05 16:22:00,
2013-01-05 11:37:00,31.1,25.0,30.32,East,94,1.0,-999.0,77,-99.99,,,0.00,weatherlink.com 1.10,2013-01-05 16:37:00,
2013-01-05 11:52:00,31.5,25.0,30.31,South,172,3.0,-999.0,76,-99.99,,,0.00,weatherlink.com 1.10,2013-01-05 16:52:00,
2013-01-05 12:07:00,31.8,25.0,30.30,South,174,3.0,-999.0,76,-99.99,,,0.00,weatherlink.com 1.10,2013-01-05 17:07:00,
2013-01-05 12:22:00,31.5,24.0,30.29,West,281,1.0,-999.0,75,-99.99,,,0.00,weatherlink.com 1.10,2013-01-05 17:22:00,
2013-01-05 12:37:00,32.4,25.0,30.27,SSE,149,4.0,-999.0,74,-99.99,,,0.00,weatherlink.com 1.10,2013-01-05 17:37:00,
2013-01-05 12:52:00,32.7,25.0,30.26,SSE,153,7.0,-999.0,74,-99.99,,,0.00,weatherlink.com 1.10,2013-01-05 17:52:00,
2013-01-05 13:07:00,33.0,25.0,30.24,SSW,197,3.0,-999.0,73,-99.99,,,0.00,weatherlink.com 1.10,2013-01-05 18:07:00,
2013-01-05 13:22:00,33.7,26.0,30.23,SSW,210,5.0,-999.0,72,-99.99,,,0.00,weatherlink.com 1.10,2013-01-05 18:22:00,
2013-01-05 13:37:00,33.3,26.0,30.23,SSE,150,6.0,-999.0,73,-99.99,,,0.00,weatherlink.com 1.10,2013-01-05 18:37:00,
2013-01-05 13:52:00,34.0,26.0,30.24,SSW,208,6.0,-999.0,72,-99.99,,,0.00,weatherlink.com 1.10,2013-01-05 18:52:00,
2013-01-05 14:07:00,34.7,27.0,30.23,SSW,200,5.0,-999.0,72,-99.99,,,0.00,weatherlink.com 1.10,2013-01-05 19:07:00,
2013-01-05 14:22:00,35.3,27.0,30.22,SW,220,4.0,-999.0,71,-99.99,,,0.00,weatherlink.com 1.10,2013-01-05 19:22:00,
2013-01-05 14:37:00,35.2,26.0,30.20,South,188,6.0,-999.0,70,-99.99,,,0.00,weatherlink.com 1.10,2013-01-05 19:37:00,
2013-01-05 14:52:00,34.9,26.0,30.20,SSW,202,1.0,-999.0,71,-99.99,,,0.00,weatherlink.com 1.10,2013-01-05 19:52:00,
2013-01-05 15:07:00,35.4,27.0,30.20,SW,217,3.0,-999.0,71,-99.99,,,0.00,weatherlink.com 1.10,2013-01-05 20:07:00,
2013-01-05 15:22:00,35.2,27.0,30.20,South,169,4.0,-999.0,72,-99.99,,,0.00,weatherlink.com 1.10,2013-01-05 20:22:00,
2013-01-05 15:37:00,34.8,27.0,30.19,SSE,148,3.0,-999.0,73,-99.99,,,0.00,weatherlink.com 1.10,2013-01-05 20:37:00,
2013-01-05 15:52:00,34.2,27.0,30.19,South,173,3.0,-999.0,75,-99.99,,,0.00,weatherlink.com 1.10,2013-01-05 20:52:00,
2013-01-05 16:07:00,33.8,27.0,30.19,SE,127,5.0,-999.0,76,-99.99,,,0.00,weatherlink.com 1.10,2013-01-05 21:07:00,
2013-01-05 16:22:00,33.3,27.0,30.18,SSE,166,4.0,-999.0,77,-99.99,,,0.00,weatherlink.com 1.10,2013-01-05 21:22:00,
2013-01-05 16:37:00,33.0,27.0,30.18,South,183,4.0,-999.0,77,-99.99,,,0.00,weatherlink.com 1.10,2013-01-05 21:37:00,
2013-01-05 16:52:00,32.7,26.0,30.17,WSW,245,6.0,-999.0,77,-99.99,,,0.00,weatherlink.com 1.10,2013-01-05 21:52:00,
2013-01-05 17:07:00,32.6,26.0,30.18,South,174,3.0,-999.0,77,-99.99,,,0.00,weatherlink.com 1.10,2013-01-05 22:07:00,
2013-01-05 17:22:00,32.6,26.0,30.17,SW,228,3.0,-999.0,78,-99.99,,,0.00,weatherlink.com 1.10,2013-01-05 22:22:00,
2013-01-05 17:37:00,32.6,27.0,30.15,South,174,2.0,-999.0,79,-99.99,,,0.00,weatherlink.com 1.10,2013-01-05 22:37:00,
2013-01-05 17:52:00,32.5,27.0,30.15,SSW,198,0.0,-999.0,79,-99.99,,,0.00,weatherlink.com 1.10,2013-01-05 22:52:00,
2013-01-05 18:07:00,32.4,27.0,30.16,SSW,213,3.0,-999.0,80,-99.99,,,0.00,weatherlink.com 1.10,2013-01-05 23:07:00,
2013-01-05 18:22:00,32.7,27.0,30.16,South,170,5.0,-999.0,80,-99.99,,,0.00,weatherlink.com 1.10,2013-01-05 23:22:00,
2013-01-05 18:37:00,33.2,28.0,30.16,West,276,4.0,-999.0,80,-99.99,,,0.00,weatherlink.com 1.10,2013-01-05 23:37:00,
2013-01-05 18:52:00,33.2,28.0,30.16,West,267,3.0,-999.0,80,-99.99,,,0.00,weatherlink.com 1.10,2013-01-05 23:52:00,
2013-01-05 19:07:00,33.6,28.0,30.16,SW,233,3.0,-999.0,80,-99.99,,,0.00,weatherlink.com 1.10,2013-01-06 00:07:00,
2013-01-05 19:22:00,33.9,28.0,30.15,SSW,210,5.0,-999.0,80,-99.99,,,0.00,weatherlink.com 1.10,2013-01-06 00:22:00,
2013-01-05 19:37:00,34.2,28.0,30.14,South,191,5.0,-999.0,79,-99.99,,,0.00,weatherlink.com 1.10,2013-01-06 00:37:00,
2013-01-05 19:52:00,34.4,29.0,30.15,SSW,192,1.0,-999.0,80,-99.99,,,0.00,weatherlink.com 1.10,2013-01-06 00:52:00,
2013-01-05 20:07:00,34.8,30.0,30.14,NNE,15,3.0,-999.0,82,-99.99,,,0.00,weatherlink.com 1.10,2013-01-06 01:07:00,
2013-01-05 20:22:00,34.4,30.0,30.15,SSW,201,3.0,-999.0,85,-99.99,,,0.00,weatherlink.com 1.10,2013-01-06 01:22:00,
2013-01-05 20:37:00,34.1,31.0,30.14,SW,225,6.0,-999.0,88,-99.99,,,0.00,weatherlink.com 1.10,2013-01-06 01:37:00,
2013-01-05 20:52:00,34.0,31.0,30.14,SW,232,5.0,-999.0,89,-99.99,,,0.00,weatherlink.com 1.10,2013-01-06 01:52:00,
2013-01-05 21:07:00,33.6,31.0,30.14,SSW,209,3.0,-999.0,91,-99.99,,,0.00,weatherlink.com 1.10,2013-01-06 02:07:00,
2013-01-05 21:22:00,33.4,31.0,30.13,NW,326,1.0,-999.0,92,-99.99,,,0.00,weatherlink.com 1.10,2013-01-06 02:22:00,
2013-01-05 21:37:00,33.4,32.0,30.13,NW,311,3.0,-999.0,93,-99.99,,,0.00,weatherlink.com 1.10,2013-01-06 02:37:00,
2013-01-05 21:52:00,33.5,32.0,30.13,SSW,202,4.0,-999.0,93,-99.99,,,0.00,weatherlink.com 1.10,2013-01-06 02:52:00,
2013-01-05 22:07:00,33.7,32.0,30.12,SW,233,8.0,-999.0,93,-99.99,,,0.00,weatherlink.com 1.10,2013-01-06 03:07:00,
2013-01-05 22:22:00,33.8,32.0,30.12,South,188,2.0,-999.0,93,-99.99,,,0.00,weatherlink.com 1.10,2013-01-06 03:22:00,
2013-01-05 22:37:00,34.0,32.0,30.12,SE,136,0.0,-999.0,93,-99.99,,,0.00,weatherlink.com 1.10,2013-01-06 03:37:00,
2013-01-05 22:52:00,34.2,32.0,30.11,SW,231,4.0,-999.0,93,-99.99,,,0.00,weatherlink.com 1.10,2013-01-06 03:52:00,
2013-01-05 23:07:00,34.2,32.0,30.11,South,188,9.0,-999.0,92,-99.99,,,0.00,weatherlink.com 1.10,2013-01-06 04:07:00,
2013-01-05 23:22:00,34.3,32.0,30.11,SW,218,1.0,-999.0,92,-99.99,,,0.00,weatherlink.com 1.10,2013-01-06 04:22:00,
2013-01-05 23:37:00,34.2,32.0,30.11,NNE,15,2.0,-999.0,92,-99.99,,,0.00,weatherlink.com 1.10,2013-01-06 04:37:00,
2013-01-05 23:52:00,34.1,32.0,30.10,West,259,5.0,-999.0,92,-99.99,,,0.00,weatherlink.com 1.10,2013-01-06 04:52:00,